createdAt,value
2023-05-14T00:01:26.153Z,100841.91
2023-05-14T00:03:59.198Z,100839.38
2023-05-14T00:06:32.204Z,100843.16
2023-05-14T00:09:05.409Z,100838.88
2023-05-14T00:11:40.524Z,100838.19
2023-05-14T00:14:13.464Z,100843.63
2023-05-14T00:16:46.436Z,100838.34
2023-05-14T00:19:19.381Z,100833.91
2023-05-14T00:21:52.309Z,100833.03
2023-05-14T00:24:25.178Z,100826.06
2023-05-14T00:26:59.506Z,100827.03
2023-05-14T00:29:32.329Z,100827.97
2023-05-14T00:32:05.585Z,100825.28
2023-05-14T00:34:38.375Z,100840.53
2023-05-14T00:37:11.345Z,100833.47
2023-05-14T00:39:44.224Z,100836.22
2023-05-14T00:42:18.552Z,100831.91
2023-05-14T00:44:51.427Z,100827.53
2023-05-14T00:47:24.575Z,100826.69
2023-05-14T00:49:57.452Z,100826.75
2023-05-14T00:52:30.388Z,100825.00
2023-05-14T00:55:06.711Z,100820.66
2023-05-14T00:57:40.995Z,100822.53
2023-05-14T01:00:14.789Z,100823.59
2023-05-14T01:02:47.820Z,100819.22
2023-05-14T01:05:21.231Z,100829.94
2023-05-14T01:08:00.232Z,100835.47
2023-05-14T01:10:39.952Z,100832.13
2023-05-14T01:13:23.863Z,100823.31
2023-05-14T01:15:58.735Z,100823.53
2023-05-14T01:18:34.346Z,100826.28
2023-05-14T01:21:19.171Z,100823.69
2023-05-14T01:23:53.351Z,100814.81
2023-05-14T01:26:26.210Z,100824.69
2023-05-14T01:29:09.620Z,100815.69
2023-05-14T01:31:47.064Z,100814.88
2023-05-14T01:34:22.542Z,100812.28
2023-05-14T01:36:57.967Z,100802.59
2023-05-14T01:39:33.606Z,100810.00
2023-05-14T01:42:08.286Z,100813.75
2023-05-14T01:44:41.748Z,100808.53
2023-05-14T01:47:14.635Z,100812.38
2023-05-14T01:49:47.501Z,100808.88
2023-05-14T01:52:21.344Z,100803.66
2023-05-14T01:54:55.629Z,100805.63
2023-05-14T01:57:28.509Z,100804.06
2023-05-14T02:00:01.387Z,100804.28
2023-05-14T02:02:35.613Z,100795.47
2023-05-14T02:05:09.886Z,100791.22
2023-05-14T02:07:42.778Z,100793.25
2023-05-14T02:10:17.042Z,100792.56
2023-05-14T02:12:54.394Z,100797.47
2023-05-14T02:15:27.229Z,100795.16
2023-05-14T02:18:00.177Z,100797.31
2023-05-14T02:20:33.561Z,100793.19
2023-05-14T02:23:06.406Z,100791.63
2023-05-14T02:25:40.632Z,100801.72
2023-05-14T02:28:13.776Z,100789.53
2023-05-14T02:30:46.916Z,100788.94
2023-05-14T02:33:19.838Z,100791.94
2023-05-14T02:35:52.837Z,100787.00
2023-05-14T02:38:27.796Z,100784.78
2023-05-14T02:41:03.983Z,100789.53
2023-05-14T02:43:38.140Z,100787.97
2023-05-14T02:46:11.046Z,100785.53
2023-05-14T02:48:43.986Z,100776.84
2023-05-14T02:51:17.395Z,100778.78
2023-05-14T02:53:50.325Z,100779.84
2023-05-14T02:56:24.638Z,100770.22
2023-05-14T02:58:57.637Z,100770.41
2023-05-14T03:01:31.024Z,100769.63
2023-05-14T03:04:04.358Z,100771.50
2023-05-14T03:06:37.199Z,100769.91
2023-05-14T03:09:10.074Z,100783.34
2023-05-14T03:11:44.518Z,100778.00
2023-05-14T03:14:17.429Z,100778.00
2023-05-14T03:16:50.387Z,100772.72
2023-05-14T03:19:24.209Z,100766.47
2023-05-14T03:21:57.058Z,100767.38
2023-05-14T03:24:29.905Z,100765.59
2023-05-14T03:27:04.377Z,100767.38
2023-05-14T03:29:37.224Z,100766.41
2023-05-14T03:32:10.238Z,100761.84
2023-05-14T03:34:44.815Z,100756.44
2023-05-14T03:37:18.179Z,100752.69
2023-05-14T03:39:50.972Z,100747.22
2023-05-14T03:42:25.281Z,100746.16
2023-05-14T03:44:58.078Z,100738.81
2023-05-14T03:47:31.033Z,100742.22
2023-05-14T03:50:04.337Z,100747.25
2023-05-14T03:52:37.251Z,100739.81
2023-05-14T03:55:10.949Z,100744.84
2023-05-14T03:57:44.936Z,100749.47
2023-05-14T04:00:19.463Z,100752.34
2023-05-14T04:02:52.385Z,100748.66
2023-05-14T04:05:25.268Z,100748.38
2023-05-14T04:07:58.273Z,100743.63
2023-05-14T04:10:32.209Z,100745.84
2023-05-14T04:13:07.408Z,100743.63
2023-05-14T04:15:41.819Z,100748.53
2023-05-14T04:18:14.970Z,100739.06
2023-05-14T04:20:47.898Z,100745.59
2023-05-14T04:23:20.931Z,100750.41
2023-05-14T04:25:53.808Z,100755.06
2023-05-14T04:28:28.027Z,100752.59
2023-05-14T04:31:01.291Z,100752.88
2023-05-14T04:33:34.148Z,100753.16
2023-05-14T04:36:07.396Z,100758.00
2023-05-14T04:38:40.179Z,100760.22
2023-05-14T04:41:13.097Z,100753.44
2023-05-14T04:43:48.319Z,100746.69
2023-05-14T04:46:21.198Z,100752.56
2023-05-14T04:48:54.070Z,100751.19
2023-05-14T04:51:27.695Z,100746.16
2023-05-14T04:54:00.389Z,100749.53
2023-05-14T04:56:33.225Z,100754.81
2023-05-14T04:59:07.460Z,100748.00
2023-05-14T05:01:40.404Z,100747.44
2023-05-14T05:04:13.508Z,100751.19
2023-05-14T05:06:46.361Z,100741.50
2023-05-14T05:09:19.410Z,100747.84
2023-05-14T05:11:52.340Z,100739.88
2023-05-14T05:14:26.547Z,100735.47
2023-05-14T05:16:59.448Z,100738.16
2023-05-14T05:19:42.461Z,100740.63
2023-05-14T05:22:16.427Z,100736.78
2023-05-14T05:24:50.096Z,100741.19
2023-05-14T05:27:23.047Z,100743.22
2023-05-14T05:29:57.570Z,100745.78
2023-05-14T05:32:30.711Z,100738.59
2023-05-14T05:35:04.163Z,100736.66
2023-05-14T05:37:36.959Z,100728.47
2023-05-14T05:40:10.631Z,100732.88
2023-05-14T05:42:43.610Z,100734.66
2023-05-14T05:45:17.894Z,100728.25
2023-05-14T05:47:50.906Z,100734.50
2023-05-14T05:50:23.925Z,100729.94
2023-05-14T05:52:57.030Z,100726.16
2023-05-14T05:55:29.891Z,100733.22
2023-05-14T05:58:02.856Z,100732.09
2023-05-14T06:00:37.109Z,100726.47
2023-05-14T06:03:12.924Z,100720.78
2023-05-14T06:05:47.053Z,100718.59
2023-05-14T06:08:23.001Z,100726.25
2023-05-14T06:10:55.813Z,100725.91
2023-05-14T06:13:28.688Z,100721.81
2023-05-14T06:16:03.101Z,100709.66
2023-05-14T06:18:36.104Z,100719.00
2023-05-14T06:21:08.956Z,100719.44
2023-05-14T06:23:42.064Z,100717.16
2023-05-14T06:26:14.892Z,100718.47
2023-05-14T06:28:47.804Z,100723.53
2023-05-14T06:31:22.193Z,100719.50
2023-05-14T06:33:55.212Z,100718.31
2023-05-14T06:36:28.106Z,100712.63
2023-05-14T06:39:01.084Z,100711.41
2023-05-14T06:41:33.985Z,100716.56
2023-05-14T06:44:06.891Z,100710.00
2023-05-14T06:46:43.373Z,100712.56
2023-05-14T06:49:16.307Z,100699.97
2023-05-14T06:51:49.232Z,100697.09
2023-05-14T06:54:22.111Z,100702.59
2023-05-14T06:56:55.156Z,100695.81
2023-05-14T06:59:27.985Z,100693.75
2023-05-14T07:02:03.205Z,100690.25
2023-05-14T07:04:36.528Z,100687.72
2023-05-14T07:07:10.583Z,100683.16
2023-05-14T07:09:43.240Z,100674.38
2023-05-14T07:12:16.194Z,100681.69
2023-05-14T07:14:49.058Z,100681.00
2023-05-14T07:17:36.589Z,100676.31
2023-05-14T07:20:10.547Z,100673.50
2023-05-14T07:22:47.030Z,100681.19
2023-05-14T07:25:19.980Z,100688.69
2023-05-14T07:27:53.029Z,100675.69
2023-05-14T07:30:29.851Z,100668.53
2023-05-14T07:33:03.985Z,100673.69
2023-05-14T07:35:36.727Z,100670.72
2023-05-14T07:38:09.501Z,100672.28
2023-05-14T07:40:42.269Z,100672.25
2023-05-14T07:43:15.203Z,100665.78
2023-05-14T07:45:47.866Z,100660.72
2023-05-14T07:48:22.121Z,100658.97
2023-05-14T07:50:54.834Z,100659.16
2023-05-14T07:53:27.572Z,100661.84
2023-05-14T07:56:01.032Z,100651.25
2023-05-14T07:58:35.167Z,100633.50
2023-05-14T08:01:09.230Z,100640.13
2023-05-14T08:03:43.547Z,100644.13
2023-05-14T08:06:16.339Z,100640.56
2023-05-14T08:08:49.016Z,100635.81
2023-05-14T08:11:22.409Z,100643.63
2023-05-14T08:13:55.138Z,100622.78
2023-05-14T08:16:27.968Z,100635.44
2023-05-14T08:19:02.037Z,100633.56
2023-05-14T08:21:34.773Z,100630.06
2023-05-14T08:24:07.645Z,100629.38
2023-05-14T08:26:40.524Z,100641.44
2023-05-14T08:29:15.470Z,100635.00
2023-05-14T08:31:49.431Z,100643.91
2023-05-14T08:34:23.593Z,100639.88
2023-05-14T08:36:56.237Z,100626.00
2023-05-14T08:39:29.098Z,100645.63
2023-05-14T08:42:01.807Z,100635.56
2023-05-14T08:44:38.341Z,100642.00
2023-05-14T08:47:12.586Z,100626.63
2023-05-14T08:49:48.156Z,100628.78
2023-05-14T08:52:21.392Z,100652.50
2023-05-14T08:54:54.775Z,100636.06
2023-05-14T08:57:28.841Z,100655.09
2023-05-14T09:00:01.921Z,100646.59
2023-05-14T09:02:35.132Z,100651.00
2023-05-14T09:05:10.333Z,100642.16
2023-05-14T09:07:43.195Z,100636.19
2023-05-14T09:10:16.628Z,100637.00
2023-05-14T09:12:49.213Z,100636.91
2023-05-14T09:15:21.879Z,100636.44
2023-05-14T09:17:54.701Z,100634.19
2023-05-14T09:20:29.301Z,100624.19
2023-05-14T09:23:02.397Z,100622.41
2023-05-14T09:25:35.065Z,100634.16
2023-05-14T09:28:09.662Z,100633.72
2023-05-14T09:30:42.647Z,100624.28
2023-05-14T09:33:26.569Z,100638.44
2023-05-14T09:36:01.650Z,100620.91
2023-05-14T09:38:34.722Z,100622.88
2023-05-14T09:41:07.432Z,100619.50
2023-05-14T09:43:40.062Z,100617.13
2023-05-14T09:46:12.683Z,100610.59
2023-05-14T09:48:46.545Z,100613.13
2023-05-14T09:51:21.997Z,100619.00
2023-05-14T09:53:56.242Z,100619.22
2023-05-14T09:56:28.952Z,100613.09
2023-05-14T09:59:01.522Z,100608.78
2023-05-14T10:01:34.610Z,100611.91
2023-05-14T10:04:07.896Z,100607.75
2023-05-14T10:06:43.890Z,100586.47
2023-05-14T10:09:17.757Z,100581.56
2023-05-14T10:11:52.828Z,100592.31
2023-05-14T10:14:27.974Z,100600.53
2023-05-14T10:17:02.035Z,100575.31
2023-05-14T10:19:35.267Z,100573.50
2023-05-14T10:22:12.461Z,100562.66
2023-05-14T10:24:46.001Z,100550.09
2023-05-14T10:27:19.060Z,100544.84
2023-05-14T10:29:53.868Z,100541.63
2023-05-14T10:32:27.127Z,100538.91
2023-05-14T10:35:02.710Z,100540.72
2023-05-14T10:37:36.756Z,100530.09
2023-05-14T10:40:10.087Z,100532.63
2023-05-14T10:42:43.770Z,100523.19
2023-05-14T10:45:16.901Z,100548.59
2023-05-14T10:47:49.905Z,100520.28
2023-05-14T10:50:23.867Z,100565.00
2023-05-14T10:53:06.012Z,100523.03
2023-05-14T10:55:39.458Z,100506.56
2023-05-14T10:58:12.419Z,100497.16
2023-05-14T11:00:51.469Z,100493.66
2023-05-14T11:03:24.190Z,100512.97
2023-05-14T11:05:56.935Z,100481.13
2023-05-14T11:08:32.049Z,100485.75
2023-05-14T11:11:05.369Z,100479.25
2023-05-14T11:13:38.469Z,100477.91
2023-05-14T11:16:22.741Z,100478.66
2023-05-14T11:19:02.889Z,100471.50
2023-05-14T11:21:36.028Z,100470.84
2023-05-14T11:24:10.955Z,100468.50
2023-05-14T11:26:43.806Z,100473.56
2023-05-14T11:29:16.463Z,100471.56
2023-05-14T11:31:49.404Z,100455.47
2023-05-14T11:34:22.527Z,100462.13
2023-05-14T11:36:55.233Z,100454.41
2023-05-14T11:39:29.302Z,100453.88
2023-05-14T11:42:04.189Z,100451.47
2023-05-14T11:44:36.912Z,100443.25
2023-05-14T11:47:09.630Z,100455.25
2023-05-14T11:49:42.648Z,100443.31
2023-05-14T11:52:15.876Z,100435.16
2023-05-14T11:54:51.039Z,100441.38
2023-05-14T11:57:23.955Z,100439.53
2023-05-14T11:59:58.058Z,100438.50
2023-05-14T12:02:31.064Z,100422.78
2023-05-14T12:05:03.793Z,100432.50
2023-05-14T12:07:36.981Z,100420.69
2023-05-14T12:10:13.300Z,100424.81
2023-05-14T12:12:46.648Z,100428.53
2023-05-14T12:15:20.565Z,100421.69
2023-05-14T12:17:53.504Z,100419.31
2023-05-14T12:20:26.415Z,100409.56
2023-05-14T12:22:59.393Z,100402.56
2023-05-14T12:25:33.423Z,100410.81
2023-05-14T12:28:14.726Z,100397.44
2023-05-14T12:30:47.821Z,100396.78
2023-05-14T12:33:23.007Z,100384.97
2023-05-14T12:35:58.902Z,100386.31
2023-05-14T12:38:33.651Z,100400.69
2023-05-14T12:41:07.669Z,100402.41
2023-05-14T12:43:40.833Z,100385.66
2023-05-14T12:46:13.563Z,100397.31
2023-05-14T12:48:46.471Z,100376.94
2023-05-14T12:51:19.181Z,100377.28
2023-05-14T12:53:54.115Z,100367.69
2023-05-14T12:56:28.557Z,100372.31
2023-05-14T12:59:01.251Z,100369.03
2023-05-14T13:01:34.141Z,100378.31
2023-05-14T13:04:07.031Z,100362.22
2023-05-14T13:06:42.841Z,100362.75
2023-05-14T13:09:15.476Z,100368.06
2023-05-14T13:11:50.797Z,100357.97
2023-05-14T13:14:23.491Z,100356.25
2023-05-14T13:16:56.182Z,100339.63
2023-05-14T13:19:28.936Z,100342.53
2023-05-14T13:22:01.600Z,100341.34
2023-05-14T13:24:34.895Z,100342.16
2023-05-14T13:27:08.873Z,100344.06
2023-05-14T13:29:41.792Z,100338.25
2023-05-14T13:32:14.474Z,100326.63
2023-05-14T13:34:47.294Z,100331.06
2023-05-14T13:37:20.046Z,100326.63
2023-05-14T13:42:39.885Z,100317.03
2023-05-14T13:45:13.296Z,100309.84
2023-05-14T13:47:46.360Z,100302.88
2023-05-14T13:50:19.177Z,100299.75
2023-05-14T13:52:52.212Z,100303.88
2023-05-14T13:55:25.170Z,100305.53
2023-05-14T13:58:00.152Z,100286.00
2023-05-14T14:00:32.863Z,100289.16
2023-05-14T14:03:05.696Z,100287.81
2023-05-14T14:05:38.646Z,100290.00
2023-05-14T14:08:22.744Z,100288.09
2023-05-14T14:10:56.401Z,100297.28
2023-05-14T14:13:30.535Z,100287.53
2023-05-14T14:16:04.511Z,100274.03
2023-05-14T14:18:37.240Z,100279.50
2023-05-14T14:21:10.181Z,100287.84
2023-05-14T14:23:42.877Z,100274.56
2023-05-14T14:26:15.984Z,100266.00
2023-05-14T14:28:50.175Z,100261.94
2023-05-14T14:31:22.984Z,100262.28
2023-05-14T14:33:55.633Z,100269.66
2023-05-14T14:36:29.042Z,100270.03
2023-05-14T14:39:01.764Z,100259.97
2023-05-14T14:41:34.460Z,100272.75
2023-05-14T14:44:08.497Z,100263.03
2023-05-14T14:46:42.852Z,100267.94
2023-05-14T14:49:15.482Z,100262.13
2023-05-14T14:51:48.138Z,100260.22
2023-05-14T14:54:20.826Z,100267.72
2023-05-14T14:56:53.472Z,100259.03
2023-05-14T14:59:27.461Z,100259.03
2023-05-14T15:02:00.138Z,100250.81
2023-05-14T15:04:34.778Z,100249.78
2023-05-14T15:07:07.536Z,100251.47
2023-05-14T15:09:40.226Z,100245.78
2023-05-14T15:12:14.283Z,100255.00
2023-05-14T15:14:48.288Z,100241.66
2023-05-14T15:17:20.941Z,100258.72
2023-05-14T15:19:53.625Z,100236.38
2023-05-14T15:22:26.333Z,100229.69
2023-05-14T15:24:58.967Z,100227.47
2023-05-14T15:27:31.966Z,100230.50
2023-05-14T15:30:07.357Z,100221.97
2023-05-14T15:32:40.276Z,100220.56
2023-05-14T15:35:13.055Z,100221.88
2023-05-14T15:37:45.999Z,100224.09
2023-05-14T15:40:20.001Z,100215.53
2023-05-14T15:42:52.687Z,100215.03
2023-05-14T15:45:26.822Z,100232.38
2023-05-14T15:47:59.525Z,100218.38
2023-05-14T15:50:32.263Z,100210.84
2023-05-14T15:53:04.916Z,100209.13
2023-05-14T15:55:37.571Z,100208.59
2023-05-14T15:58:10.238Z,100208.06
2023-05-14T16:00:44.223Z,100210.38
2023-05-14T16:03:19.769Z,100204.22
2023-05-14T16:05:52.486Z,100198.41
2023-05-14T16:08:25.164Z,100208.94
2023-05-14T16:10:57.853Z,100184.34
2023-05-14T16:13:30.643Z,100189.78
2023-05-14T16:16:04.863Z,100183.31
2023-05-14T16:18:38.902Z,100182.63
2023-05-14T16:21:11.551Z,100182.09
2023-05-14T16:23:44.225Z,100181.25
2023-05-14T16:26:17.097Z,100171.34
2023-05-14T16:28:49.832Z,100166.19
2023-05-14T16:31:23.856Z,100163.47
2023-05-14T16:33:56.476Z,100159.34
2023-05-14T16:36:29.123Z,100150.31
2023-05-14T16:41:37.946Z,100145.34
2023-05-14T16:44:10.699Z,100146.84
2023-05-14T16:46:44.804Z,100142.72
2023-05-14T16:49:17.585Z,100136.75
2023-05-14T16:51:50.249Z,100138.06
2023-05-14T16:54:23.022Z,100133.94
2023-05-14T16:56:55.702Z,100137.00
2023-05-14T16:59:29.621Z,100146.47
2023-05-14T17:02:04.083Z,100151.38
2023-05-14T17:04:38.812Z,100152.34
2023-05-14T17:07:11.857Z,100150.81
2023-05-14T17:09:44.673Z,100146.00
2023-05-14T17:12:17.300Z,100146.28
2023-05-14T17:14:50.013Z,100135.88
2023-05-14T17:17:24.098Z,100136.19
2023-05-14T17:19:56.997Z,100133.22
2023-05-14T17:22:29.735Z,100136.41
2023-05-14T17:25:02.514Z,100132.41
2023-05-14T17:27:36.148Z,100133.19
2023-05-14T17:30:09.316Z,100131.94
2023-05-14T17:32:43.464Z,100143.28
2023-05-14T17:35:16.459Z,100148.50
2023-05-14T17:37:49.471Z,100143.66
2023-05-14T17:40:22.166Z,100132.69
2023-05-14T17:42:54.817Z,100131.38
2023-05-14T17:45:28.559Z,100132.56
2023-05-14T17:48:04.895Z,100129.56
2023-05-14T17:50:39.195Z,100126.59
2023-05-14T17:53:11.911Z,100130.94
2023-05-14T17:55:44.716Z,100130.19
2023-05-14T17:58:17.426Z,100130.66
2023-05-14T18:00:50.175Z,100132.09
2023-05-14T18:03:24.393Z,100133.41
2023-05-14T18:05:57.314Z,100136.59
2023-05-14T18:08:30.073Z,100140.44
2023-05-14T18:11:02.777Z,100134.59
2023-05-14T18:13:35.453Z,100135.19
2023-05-14T18:16:08.707Z,100140.06
2023-05-14T18:18:43.065Z,100138.63
2023-05-14T18:21:16.018Z,100141.78
2023-05-14T18:23:48.690Z,100138.66
2023-05-14T18:26:22.100Z,100135.50
2023-05-14T18:28:54.753Z,100146.81
2023-05-14T18:31:28.532Z,100140.06
2023-05-14T18:34:02.653Z,100140.38
2023-05-14T18:36:35.480Z,100138.22
2023-05-14T18:39:08.086Z,100140.38
2023-05-14T18:41:40.785Z,100137.09
2023-05-14T18:44:13.532Z,100129.38
2023-05-14T18:46:46.331Z,100136.97
2023-05-14T18:49:20.502Z,100132.09
2023-05-14T18:51:53.267Z,100131.41
2023-05-14T18:54:25.948Z,100137.13
2023-05-14T18:56:58.705Z,100132.94
2023-05-14T18:59:31.344Z,100126.97
2023-05-14T19:02:04.307Z,100127.38
2023-05-14T19:04:50.736Z,100126.97
2023-05-14T19:07:24.867Z,100121.94
2023-05-14T19:09:57.941Z,100120.66
2023-05-14T19:12:31.635Z,100117.38
2023-05-14T19:15:04.520Z,100122.19
2023-05-14T19:17:37.518Z,100116.34
2023-05-14T19:20:12.503Z,100118.31
2023-05-14T19:22:45.182Z,100116.16
2023-05-14T19:25:17.902Z,100110.16
2023-05-14T19:27:53.578Z,100116.75
2023-05-14T19:30:26.284Z,100106.31
2023-05-14T19:32:59.134Z,100108.41
2023-05-14T19:35:33.188Z,100109.72
2023-05-14T19:38:05.892Z,100108.13
2023-05-14T19:40:38.549Z,100109.41
2023-05-14T19:43:11.960Z,100103.38
2023-05-14T19:45:45.836Z,100096.69
2023-05-14T19:48:19.243Z,100096.09
2023-05-14T19:50:53.229Z,100099.09
2023-05-14T19:53:29.720Z,100098.34
2023-05-14T19:56:03.513Z,100088.53
2023-05-14T19:58:36.238Z,100081.66
2023-05-14T20:01:09.373Z,100086.34
2023-05-14T20:03:42.338Z,100081.91
2023-05-14T20:06:17.585Z,100079.47
2023-05-14T20:08:51.560Z,100078.91
2023-05-14T20:11:24.359Z,100078.34
2023-05-14T20:13:57.102Z,100074.03
2023-05-14T20:16:29.879Z,100075.31
2023-05-14T20:19:02.751Z,100081.00
2023-05-14T20:21:37.119Z,100074.00
2023-05-14T20:24:09.848Z,100071.66
2023-05-14T20:26:42.691Z,100064.50
2023-05-14T20:29:15.459Z,100059.22
2023-05-14T20:31:48.138Z,100058.66
2023-05-14T20:34:20.830Z,100054.38
2023-05-14T20:36:54.941Z,100054.53
2023-05-14T20:39:27.602Z,100047.63
2023-05-14T20:42:00.226Z,100039.91
2023-05-14T20:44:32.832Z,100033.06
2023-05-14T20:47:05.773Z,100036.19
2023-05-14T20:49:38.399Z,100037.03
2023-05-14T20:52:12.561Z,100030.16
2023-05-14T20:54:45.389Z,100027.72
2023-05-14T20:57:18.058Z,100020.88
2023-05-14T20:59:50.669Z,100027.53
2023-05-14T21:02:23.382Z,100030.50
2023-05-14T21:04:56.284Z,100021.81
2023-05-14T21:07:30.434Z,100020.25
2023-05-14T21:10:03.233Z,100015.09
2023-05-14T21:12:35.870Z,100013.63
2023-05-14T21:15:09.250Z,100012.16
2023-05-14T21:17:41.981Z,100008.75
2023-05-14T21:20:15.653Z,99999.06
2023-05-14T21:22:49.773Z,100000.19
2023-05-14T21:25:22.788Z,99997.59
2023-05-14T21:27:55.696Z,99995.03
2023-05-14T21:30:28.326Z,99996.13
2023-05-14T21:33:01.100Z,99998.00
2023-05-14T21:35:33.817Z,99988.41
2023-05-14T21:38:08.896Z,99984.16
2023-05-14T21:40:41.516Z,99993.38
2023-05-14T21:43:14.200Z,99990.81
2023-05-14T21:45:47.153Z,99992.75
2023-05-14T21:48:20.905Z,99981.09
2023-05-14T21:50:53.554Z,99977.63
2023-05-14T21:53:27.615Z,99970.66
2023-05-14T21:56:00.224Z,99971.63
2023-05-14T21:58:33.226Z,99964.66
2023-05-14T22:01:05.954Z,99956.81
2023-05-14T22:03:38.922Z,99959.66
2023-05-14T22:06:11.873Z,99951.66
2023-05-14T22:08:45.946Z,99954.63
2023-05-14T22:11:18.650Z,99946.78
2023-05-14T22:13:51.339Z,99940.63
2023-05-14T22:16:26.366Z,99943.50
2023-05-14T22:18:59.095Z,99942.59
2023-05-14T22:21:31.714Z,99939.06
2023-05-14T22:24:06.017Z,99931.91
2023-05-14T22:26:38.726Z,99928.38
2023-05-14T22:29:11.382Z,99924.81
2023-05-14T22:31:44.194Z,99921.22
2023-05-14T22:34:17.154Z,99923.34
2023-05-14T22:36:49.840Z,99912.66
2023-05-14T22:39:23.827Z,99919.19
2023-05-14T22:41:59.525Z,99912.94
2023-05-14T22:44:32.194Z,99904.09
2023-05-14T22:47:05.405Z,99906.09
2023-05-14T22:49:38.023Z,99898.94
2023-05-14T22:52:10.917Z,99902.63
2023-05-14T22:54:44.875Z,99896.38
2023-05-14T22:57:17.636Z,99895.66
2023-05-14T22:59:50.487Z,99886.69
2023-05-14T23:02:23.184Z,99884.97
2023-05-14T23:04:56.064Z,99884.09
2023-05-14T23:07:28.790Z,99885.13
2023-05-14T23:10:02.951Z,99885.13
2023-05-14T23:12:35.655Z,99876.25
2023-05-14T23:15:08.622Z,99878.38
2023-05-14T23:17:41.411Z,99871.28
2023-05-14T23:20:14.160Z,99860.59
2023-05-14T23:22:46.761Z,99866.00
2023-05-14T23:25:20.827Z,99866.97
2023-05-14T23:27:53.532Z,99862.41
2023-05-14T23:30:26.170Z,99861.56
2023-05-14T23:32:58.806Z,99862.53
2023-05-14T23:35:31.529Z,99860.59
2023-05-14T23:38:04.834Z,99864.97
2023-05-14T23:40:38.823Z,99859.72
2023-05-14T23:43:11.470Z,99862.41
2023-05-14T23:45:44.125Z,99860.72
2023-05-14T23:48:16.839Z,99853.47
2023-05-14T23:50:49.510Z,99861.56
2023-05-14T23:53:22.098Z,99850.03
2023-05-14T23:55:56.114Z,99856.28
2023-05-14T23:58:30.078Z,99862.94
